createdAt,value
2022-10-08T00:03:43.336Z,72.44
2022-10-08T00:08:58.727Z,72.38
2022-10-08T00:14:01.945Z,72.92
2022-10-08T00:19:07.838Z,73.27
2022-10-08T00:24:13.137Z,73.46
2022-10-08T00:29:16.741Z,73.58
2022-10-08T00:34:21.836Z,73.68
2022-10-08T00:39:24.643Z,72.96
2022-10-08T00:44:50.640Z,73.51
2022-10-08T00:49:57.393Z,73.32
2022-10-08T00:54:59.040Z,73.74
2022-10-08T01:00:05.141Z,73.74
2022-10-08T01:05:07.486Z,73.75
2022-10-08T01:10:26.690Z,74.04
2022-10-08T01:15:33.685Z,74.58
2022-10-08T01:20:43.461Z,74.57
2022-10-08T01:26:28.986Z,74.66
2022-10-08T01:31:35.565Z,74.29
2022-10-08T01:36:43.230Z,74.31
2022-10-08T01:41:58.443Z,73.31
2022-10-08T01:47:03.747Z,72.52
2022-10-08T01:52:11.824Z,71.82
2022-10-08T01:57:13.758Z,72.00
2022-10-08T02:02:21.774Z,71.36
2022-10-08T02:07:23.078Z,72.48
2022-10-08T02:12:24.608Z,72.05
2022-10-08T02:18:07.852Z,73.06
2022-10-08T02:23:22.995Z,72.87
2022-10-08T02:28:43.364Z,73.58
2022-10-08T02:33:51.768Z,74.00
2022-10-08T02:38:57.518Z,74.05
2022-10-08T02:44:03.028Z,73.24
2022-10-08T02:49:37.609Z,73.05
2022-10-08T02:54:42.498Z,73.23
2022-10-08T02:59:45.552Z,73.69
2022-10-08T03:04:56.627Z,73.37
2022-10-08T03:10:00.397Z,72.99
2022-10-08T03:15:02.103Z,73.57
2022-10-08T03:20:06.428Z,73.99
2022-10-08T03:25:07.820Z,73.85
2022-10-08T03:30:09.956Z,73.52
2022-10-08T03:35:11.846Z,73.55
2022-10-08T03:40:13.087Z,73.88
2022-10-08T03:45:14.512Z,74.14
2022-10-08T03:50:15.864Z,73.80
2022-10-08T03:55:17.434Z,73.30
2022-10-08T04:00:18.901Z,73.52
2022-10-08T04:05:20.145Z,73.37
2022-10-08T04:10:21.475Z,73.59
2022-10-08T04:15:22.731Z,73.56
2022-10-08T04:20:24.143Z,74.63
2022-10-08T04:25:25.652Z,73.77
2022-10-08T04:30:26.986Z,74.66
2022-10-08T04:35:28.246Z,74.48
2022-10-08T04:40:29.511Z,74.91
2022-10-08T04:45:30.787Z,74.81
2022-10-08T04:50:32.181Z,74.50
2022-10-08T04:55:33.995Z,74.05
2022-10-08T05:00:35.837Z,74.63
2022-10-08T05:05:41.955Z,74.55
2022-10-08T05:10:49.828Z,73.97
2022-10-08T05:15:51.404Z,74.75
2022-10-08T05:20:52.710Z,73.83
2022-10-08T05:25:54.005Z,74.18
2022-10-08T05:31:01.990Z,74.05
2022-10-08T05:36:09.210Z,74.27
2022-10-08T05:41:25.728Z,73.89
2022-10-08T05:46:28.394Z,74.04
2022-10-08T05:51:30.124Z,73.61
2022-10-08T05:56:31.633Z,73.72
2022-10-08T06:01:34.051Z,73.79
2022-10-08T06:06:40.134Z,73.76
2022-10-08T06:11:42.589Z,74.30
2022-10-08T06:16:43.919Z,73.19
2022-10-08T06:21:45.393Z,73.81
2022-10-08T06:26:46.689Z,73.49
2022-10-08T06:31:48.898Z,73.25
2022-10-08T06:36:50.500Z,74.09
2022-10-08T06:41:52.120Z,73.73
2022-10-08T06:46:54.581Z,74.76
2022-10-08T06:51:55.922Z,74.18
2022-10-08T06:56:57.400Z,73.97
2022-10-08T07:01:58.775Z,74.36
2022-10-08T07:07:00.101Z,72.60
2022-10-08T07:12:02.436Z,71.99
2022-10-08T07:17:03.773Z,70.73
2022-10-08T07:22:05.049Z,69.67
2022-10-08T07:27:06.305Z,69.28
2022-10-08T07:32:07.562Z,69.00
2022-10-08T07:37:08.832Z,68.23
2022-10-08T07:42:10.131Z,68.13
2022-10-08T07:47:11.461Z,68.03
2022-10-08T07:52:12.736Z,66.69
2022-10-08T07:57:14.253Z,66.26
2022-10-08T08:02:15.729Z,63.43
2022-10-08T08:07:17.215Z,63.52
2022-10-08T08:12:18.531Z,61.53
2022-10-08T08:17:19.905Z,61.90
2022-10-08T08:22:21.218Z,60.57
2022-10-08T08:27:22.487Z,59.53
2022-10-08T08:32:28.421Z,59.17
2022-10-08T08:37:30.112Z,57.61
2022-10-08T08:42:53.748Z,55.36
2022-10-08T08:48:13.813Z,56.08
2022-10-08T08:53:15.186Z,54.91
2022-10-08T08:58:35.940Z,52.91
2022-10-08T09:03:45.978Z,53.72
2022-10-08T09:08:56.573Z,54.08
2022-10-08T09:14:34.499Z,55.44
2022-10-08T09:19:37.744Z,55.50
2022-10-08T09:24:39.151Z,54.40
2022-10-08T09:29:40.668Z,55.90
2022-10-08T09:34:43.165Z,54.64
2022-10-08T09:40:13.593Z,54.89
2022-10-08T09:45:34.019Z,53.98
2022-10-08T09:50:37.143Z,52.69
2022-10-08T09:55:38.507Z,52.40
2022-10-08T10:00:39.865Z,54.19
2022-10-08T10:05:41.454Z,53.41
2022-10-08T10:10:45.719Z,49.96
2022-10-08T10:15:53.005Z,46.62
2022-10-08T10:20:58.598Z,48.55
2022-10-08T10:26:23.874Z,48.48
2022-10-08T10:31:31.809Z,50.63
2022-10-08T10:36:38.682Z,51.06
2022-10-08T10:41:48.125Z,50.79
2022-10-08T10:46:55.056Z,52.49
2022-10-08T10:52:05.623Z,53.34
2022-10-08T10:57:22.662Z,53.00
2022-10-08T11:02:49.707Z,51.27
2022-10-08T11:08:00.576Z,52.20
2022-10-08T11:13:17.920Z,53.98
2022-10-08T11:18:46.739Z,55.45
2022-10-08T11:24:19.448Z,53.43
2022-10-08T11:29:33.906Z,39.80
2022-10-08T11:34:42.571Z,33.67
2022-10-08T11:39:53.586Z,32.08
2022-10-08T11:44:54.865Z,38.20
2022-10-08T11:49:56.294Z,40.83
2022-10-08T11:55:00.864Z,39.81
2022-10-08T12:00:08.859Z,38.33
2022-10-08T12:05:22.491Z,36.00
2022-10-08T12:10:29.726Z,24.56
2022-10-08T12:15:33.375Z,18.50
2022-10-08T12:20:34.947Z,17.00
2022-10-08T12:25:48.997Z,23.85
2022-10-08T12:30:52.119Z,30.03
2022-10-08T12:36:22.141Z,34.98
2022-10-08T12:41:45.056Z,39.90
2022-10-08T12:46:56.219Z,39.78
2022-10-08T12:52:05.405Z,40.51
2022-10-08T12:57:12.473Z,39.42
2022-10-08T13:02:42.101Z,40.26
2022-10-08T13:07:43.981Z,34.13
2022-10-08T13:13:05.157Z,23.17
2022-10-08T13:18:14.868Z,23.74
2022-10-08T13:23:33.507Z,23.00
2022-10-08T13:28:59.518Z,19.16
2022-10-08T13:33:55.991Z,16.57
2022-10-08T13:38:57.347Z,16.12
2022-10-08T13:43:58.609Z,14.87
2022-10-08T13:48:59.879Z,14.61
2022-10-08T13:54:01.222Z,14.82
2022-10-08T13:59:02.462Z,13.78
2022-10-08T14:04:03.716Z,14.43
2022-10-08T14:09:07.153Z,15.51
2022-10-08T14:14:15.585Z,14.72
2022-10-08T14:19:18.194Z,16.04
2022-10-08T14:24:19.512Z,16.75
2022-10-08T14:29:20.815Z,19.25
2022-10-08T14:34:22.154Z,22.62
2022-10-08T14:39:24.241Z,25.55
2022-10-08T14:44:25.551Z,27.29
2022-10-08T14:49:26.891Z,28.73
2022-10-08T14:54:28.190Z,29.89
2022-10-08T14:59:29.443Z,32.08
2022-10-08T15:04:30.684Z,32.56
2022-10-08T15:09:32.129Z,33.65
2022-10-08T15:14:37.967Z,36.97
2022-10-08T15:19:39.852Z,36.93
2022-10-08T15:24:41.309Z,38.54
2022-10-08T15:29:42.586Z,37.32
2022-10-08T15:34:43.938Z,37.80
2022-10-08T15:39:45.233Z,38.14
2022-10-08T15:44:46.670Z,38.90
2022-10-08T15:49:48.011Z,42.08
2022-10-08T15:54:49.295Z,41.93
2022-10-08T15:59:50.555Z,42.52
2022-10-08T16:04:53.159Z,43.11
2022-10-08T16:09:54.421Z,43.79
2022-10-08T16:14:55.743Z,42.65
2022-10-08T16:19:56.983Z,44.00
2022-10-08T16:24:58.284Z,45.09
2022-10-08T16:29:59.649Z,45.22
2022-10-08T16:35:01.187Z,45.09
2022-10-08T16:40:03.865Z,45.65
2022-10-08T16:45:05.765Z,43.55
2022-10-08T16:50:07.260Z,44.65
2022-10-08T16:55:09.061Z,45.38
2022-10-08T17:00:11.134Z,47.73
2022-10-08T17:05:12.373Z,48.25
2022-10-08T17:10:13.686Z,47.60
2022-10-08T17:15:15.041Z,48.25
2022-10-08T17:20:16.316Z,47.91
2022-10-08T17:25:17.603Z,48.47
2022-10-08T17:30:18.911Z,48.94
2022-10-08T17:35:20.185Z,48.92
2022-10-08T17:40:21.542Z,49.42
2022-10-08T17:45:22.812Z,51.05
2022-10-08T17:50:24.051Z,50.89
2022-10-08T17:55:25.301Z,50.17
2022-10-08T18:00:27.867Z,51.49
2022-10-08T18:05:29.126Z,51.69
2022-10-08T18:10:30.365Z,52.15
2022-10-08T18:15:31.710Z,52.88
2022-10-08T18:20:32.966Z,53.42
2022-10-08T18:25:35.780Z,53.59
2022-10-08T18:30:37.021Z,53.15
2022-10-08T18:35:38.269Z,54.18
2022-10-08T18:40:39.567Z,54.47
2022-10-08T18:45:40.800Z,54.13
2022-10-08T18:50:42.132Z,54.49
2022-10-08T18:55:49.531Z,54.49
2022-10-08T19:00:50.858Z,55.63
2022-10-08T19:05:52.877Z,55.38
2022-10-08T19:10:54.141Z,55.46
2022-10-08T19:15:55.467Z,55.45
2022-10-08T19:20:56.780Z,55.64
2022-10-08T19:25:58.057Z,55.72
2022-10-08T19:30:59.418Z,54.89
2022-10-08T19:36:00.974Z,54.55
2022-10-08T19:41:07.576Z,53.91
2022-10-08T19:46:09.218Z,53.82
2022-10-08T19:51:11.457Z,53.36
2022-10-08T19:56:13.940Z,53.70
2022-10-08T20:01:21.274Z,53.97
2022-10-08T20:06:25.224Z,53.15
2022-10-08T20:11:27.669Z,52.64
2022-10-08T20:16:32.869Z,53.54
2022-10-08T20:21:37.196Z,53.49
2022-10-08T20:26:39.548Z,55.14
2022-10-08T20:31:43.654Z,53.89
2022-10-08T20:36:46.185Z,53.98
2022-10-08T20:41:47.584Z,54.03
2022-10-08T20:46:50.518Z,54.98
2022-10-08T20:51:51.989Z,54.54
2022-10-08T20:56:53.287Z,54.81
2022-10-08T21:01:54.684Z,54.92
2022-10-08T21:06:55.945Z,54.57
2022-10-08T21:11:57.203Z,55.43
2022-10-08T21:16:58.515Z,55.16
2022-10-08T21:21:59.742Z,55.79
2022-10-08T21:27:01.067Z,56.49
2022-10-08T21:32:02.442Z,57.47
2022-10-08T21:37:03.739Z,57.15
2022-10-08T21:42:05.014Z,57.81
2022-10-08T21:47:06.271Z,58.55
2022-10-08T21:52:07.613Z,58.71
2022-10-08T21:57:10.059Z,59.15
2022-10-08T22:02:12.611Z,59.17
2022-10-08T22:07:13.951Z,60.01
2022-10-08T22:12:15.211Z,60.10
2022-10-08T22:17:16.457Z,60.88
2022-10-08T22:22:17.719Z,61.21
2022-10-08T22:27:18.982Z,61.16
2022-10-08T22:32:20.270Z,61.09
2022-10-08T22:37:21.515Z,61.97
2022-10-08T22:42:22.858Z,62.33
2022-10-08T22:47:24.222Z,62.73
2022-10-08T22:52:25.679Z,63.10
2022-10-08T22:57:26.909Z,63.57
2022-10-08T23:02:28.225Z,63.67
2022-10-08T23:07:29.594Z,63.05
2022-10-08T23:12:30.942Z,63.48
2022-10-08T23:17:32.357Z,63.64
2022-10-08T23:22:33.661Z,63.84
2022-10-08T23:27:35.026Z,65.00
2022-10-08T23:32:36.308Z,63.78
2022-10-08T23:37:37.641Z,64.18
2022-10-08T23:42:38.938Z,64.30
2022-10-08T23:47:40.510Z,65.34
2022-10-08T23:52:41.802Z,66.17
2022-10-08T23:57:43.070Z,67.63
